Time;durP1;ratioP1;P1;durP2;ratioP2;P2;SDS_P1;SDS_P2;PMS_P1;PMS_P2;Temp;Humidity;BMP_temperature;BMP_pressure;BME280_temperature;BME280_humidity;BME280_pressure;Samples;Min_cycle;Max_cycle;Signal;HPM_P1;HPM_P2
2023/12/31 00:03:58;;;;;;;25.80;10.40;;;;;;;5.65;100.00;100146.31;177690;1258;44236;-83
2023/12/31 00:08:01;;;;;;;17.20;8.70;;;;;;;5.61;100.00;100141.10;177289;1259;46085;-83
2023/12/31 00:12:04;;;;;;;17.60;10.80;;;;;;;5.61;100.00;100139.52;177964;1259;46095;-83
2023/12/31 00:16:14;;;;;;;23.90;10.90;;;;;;;5.53;100.00;100135.06;177241;1258;57580;-83
2023/12/31 00:20:17;;;;;;;19.70;10.10;;;;;;;5.53;100.00;100126.65;177832;1259;45935;-83
2023/12/31 00:24:20;;;;;;;13.50;9.30;;;;;;;5.54;100.00;100128.17;177547;1259;46204;-85
2023/12/31 00:28:23;;;;;;;12.30;6.10;;;;;;;5.55;100.00;100120.51;178128;1258;46085;-85
2023/12/31 00:32:26;;;;;;;12.70;7.50;;;;;;;5.56;100.00;100116.23;177945;1260;45994;-81
2023/12/31 00:36:31;;;;;;;15.20;9.80;;;;;;;5.56;100.00;100113.41;177597;1259;58304;-81
2023/12/31 00:40:34;;;;;;;17.00;9.80;;;;;;;5.50;100.00;100107.87;177329;1259;46094;-82
2023/12/31 00:44:37;;;;;;;15.50;9.40;;;;;;;5.47;100.00;100110.34;177523;1260;45954;-82
2023/12/31 00:48:40;;;;;;;14.10;8.80;;;;;;;5.44;100.00;100105.58;177462;1259;45927;-82
2023/12/31 00:52:43;;;;;;;13.40;8.30;;;;;;;5.41;100.00;100106.09;177989;1257;46159;-82
2023/12/31 00:56:46;;;;;;;12.50;7.70;;;;;;;5.39;100.00;100103.10;177586;1260;58977;-82
2023/12/31 01:00:50;;;;;;;10.20;6.70;;;;;;;5.36;100.00;100106.63;177669;1259;46049;-83
2023/12/31 01:04:53;;;;;;;12.60;8.00;;;;;;;5.32;100.00;100105.97;177573;1260;45984;-82
2023/12/31 01:08:59;;;;;;;23.20;11.20;;;;;;;5.29;100.00;100101.73;177269;1259;46009;-82
2023/12/31 01:13:02;;;;;;;14.50;6.70;;;;;;;5.24;100.00;100097.52;177512;1260;45926;-83
2023/12/31 01:17:06;;;;;;;19.90;9.80;;;;;;;5.25;100.00;100098.80;177814;1260;59552;-82
2023/12/31 01:21:09;;;;;;;8.80;6.40;;;;;;;5.23;100.00;100097.70;177448;1259;46387;-84
2023/12/31 01:25:12;;;;;;;10.90;6.50;;;;;;;5.20;100.00;100099.14;177799;1259;46194;-82
2023/12/31 01:29:15;;;;;;;14.20;6.50;;;;;;;5.17;100.00;100103.73;178479;1259;44235;-83
2023/12/31 01:33:18;;;;;;;10.10;6.80;;;;;;;5.14;100.00;100097.75;178165;1260;45962;-83
2023/12/31 01:37:22;;;;;;;15.10;8.40;;;;;;;5.14;100.00;100097.44;177403;1260;58052;-83
2023/12/31 01:41:25;;;;;;;21.20;7.70;;;;;;;5.07;100.00;100096.78;177038;1260;46118;-82
2023/12/31 01:45:28;;;;;;;23.30;13.30;;;;;;;4.95;100.00;100098.91;177470;1259;46083;-83
2023/12/31 01:49:32;;;;;;;41.00;15.90;;;;;;;4.90;100.00;100094.83;177152;1259;46297;-83
2023/12/31 01:53:36;;;;;;;19.60;13.50;;;;;;;4.73;100.00;100101.84;177892;1258;45977;-83
2023/12/31 01:57:40;;;;;;;17.00;9.90;;;;;;;4.51;100.00;100100.69;177995;1259;57919;-82
2023/12/31 02:01:45;;;;;;;21.70;12.60;;;;;;;4.41;100.00;100096.70;177356;1259;46132;-83
2023/12/31 02:05:57;;;;;;;33.70;19.60;;;;;;;4.33;100.00;100101.73;177412;1259;46092;-82
2023/12/31 02:10:00;;;;;;;50.00;17.50;;;;;;;4.29;100.00;100097.20;177601;1259;46173;-83
2023/12/31 02:14:04;;;;;;;31.60;14.70;;;;;;;4.24;100.00;100095.92;177595;1260;46045;-83
2023/12/31 02:18:07;;;;;;;29.10;10.40;;;;;;;4.23;100.00;100095.45;177380;1258;59638;-84
2023/12/31 02:22:10;;;;;;;13.60;7.60;;;;;;;4.26;100.00;100095.63;177592;1259;46896;-83
2023/12/31 02:26:14;;;;;;;14.40;7.30;;;;;;;4.32;100.00;100095.44;177369;1260;46208;-83
2023/12/31 02:30:19;;;;;;;36.60;9.00;;;;;;;4.38;100.00;100090.39;177806;1258;46090;-83
2023/12/31 02:34:22;;;;;;;11.40;6.50;;;;;;;4.36;100.00;100087.48;177551;1258;46207;-82
2023/12/31 02:38:25;;;;;;;20.30;9.60;;;;;;;4.36;100.00;100088.38;177817;1258;59558;-83
2023/12/31 02:42:29;;;;;;;13.70;9.90;;;;;;;4.35;100.00;100084.55;177002;1260;46058;-82
2023/12/31 02:46:32;;;;;;;14.00;6.40;;;;;;;4.30;100.00;100078.36;177534;1258;46109;-83
2023/12/31 02:50:35;;;;;;;11.80;7.20;;;;;;;4.31;100.00;100074.30;177130;1258;46081;-83
2023/12/31 02:54:38;;;;;;;13.50;9.80;;;;;;;4.37;100.00;100070.92;177384;1261;46092;-83
2023/12/31 02:58:41;;;;;;;22.90;10.00;;;;;;;4.40;100.00;100072.17;177413;1262;60410;-83
2023/12/31 03:02:44;;;;;;;14.40;9.30;;;;;;;4.36;100.00;100073.45;177686;1259;46098;-83
2023/12/31 03:06:51;;;;;;;20.00;11.80;;;;;;;4.30;100.00;100063.27;177475;1260;45925;-83
2023/12/31 03:10:54;;;;;;;;;;;;;;;4.23;100.00;100062.46;177636;1260;46074;-83
2023/12/31 03:14:57;;;;;;;18.10;9.50;;;;;;;4.15;100.00;100057.80;177587;1258;45820;-83
2023/12/31 03:19:00;;;;;;;32.00;13.80;;;;;;;4.06;100.00;100057.68;177262;1259;57708;-83
2023/12/31 03:23:04;;;;;;;20.50;11.40;;;;;;;3.98;100.00;100049.48;176988;1260;242711;-84
2023/12/31 03:27:09;;;;;;;16.30;9.20;;;;;;;3.99;100.00;100045.25;176928;1260;46185;-84
2023/12/31 03:31:12;;;;;;;16.80;9.80;;;;;;;3.97;100.00;100044.64;177422;1260;46022;-82
2023/12/31 03:35:15;;;;;;;20.70;11.50;;;;;;;3.98;100.00;100041.23;178162;1258;46251;-82
2023/12/31 03:39:18;;;;;;;18.00;10.70;;;;;;;3.99;100.00;100043.15;177413;1260;59030;-83
2023/12/31 03:43:21;;;;;;;20.00;12.30;;;;;;;3.99;100.00;100046.45;177579;1259;46095;-83
2023/12/31 03:47:24;;;;;;;13.00;10.40;;;;;;;4.02;100.00;100047.16;177835;1258;46093;-82
2023/12/31 03:51:28;;;;;;;15.50;10.10;;;;;;;4.08;100.00;100045.45;177571;1259;46113;-83
2023/12/31 03:55:31;;;;;;;14.70;8.20;;;;;;;4.17;100.00;100049.14;177330;1260;46105;-83
2023/12/31 03:59:34;;;;;;;13.30;9.60;;;;;;;4.11;100.00;100040.73;177181;1260;58262;-83
2023/12/31 04:03:39;;;;;;;16.90;8.40;;;;;;;4.04;100.00;100030.25;177746;1259;45960;-84
2023/12/31 04:07:42;;;;;;;13.10;9.40;;;;;;;3.95;100.00;100021.27;177510;1259;45979;-83
2023/12/31 04:11:45;;;;;;;16.50;9.90;;;;;;;3.90;100.00;100016.10;177682;1259;46174;-84
2023/12/31 04:15:48;;;;;;;11.20;7.90;;;;;;;3.89;100.00;100021.44;177283;1260;46490;-83
2023/12/31 04:19:51;;;;;;;10.90;7.90;;;;;;;3.74;100.00;100028.05;177139;1260;59930;-83
2023/12/31 04:23:55;;;;;;;15.10;7.80;;;;;;;3.53;100.00;100025.20;177307;1258;46201;-84
2023/12/31 04:27:59;;;;;;;13.10;8.80;;;;;;;3.44;100.00;100021.19;177552;1260;46075;-84
2023/12/31 04:32:03;;;;;;;13.10;10.30;;;;;;;3.44;100.00;100016.23;177420;1258;46003;-83
2023/12/31 04:36:07;;;;;;;9.80;6.80;;;;;;;3.46;100.00;100011.95;177418;1260;46522;-83
2023/12/31 04:40:10;;;;;;;11.80;8.70;;;;;;;3.41;100.00;100009.43;177679;1259;58223;-83
2023/12/31 04:44:13;;;;;;;12.50;8.40;;;;;;;3.33;100.00;100012.86;177492;1260;46102;-83
2023/12/31 04:48:16;;;;;;;11.60;8.30;;;;;;;3.26;100.00;100005.13;177554;1258;45972;-83
2023/12/31 04:52:19;;;;;;;19.00;11.40;;;;;;;3.31;100.00;100001.89;178037;1259;46073;-84
2023/12/31 04:56:26;;;;;;;20.40;11.10;;;;;;;3.33;100.00;100003.36;177194;1260;46025;-84
2023/12/31 05:00:30;;;;;;;21.50;10.30;;;;;;;3.35;100.00;100005.02;177667;1258;59379;-83
2023/12/31 05:04:33;;;;;;;24.40;13.50;;;;;;;3.40;100.00;100004.55;177690;1259;45974;-83
2023/12/31 05:08:36;;;;;;;19.20;11.00;;;;;;;3.43;100.00;100003.83;177649;1260;46093;-84
2023/12/31 05:12:39;;;;;;;21.30;13.30;;;;;;;3.43;100.00;100003.50;177670;1260;46076;-84
2023/12/31 05:16:42;;;;;;;27.10;13.70;;;;;;;3.47;100.00;99998.38;178091;1258;46027;-83
2023/12/31 05:20:46;;;;;;;28.70;18.20;;;;;;;3.45;100.00;99990.42;177302;1258;57917;-83
2023/12/31 05:24:49;;;;;;;24.60;13.40;;;;;;;3.40;100.00;99981.80;177440;1260;45990;-83
2023/12/31 05:28:53;;;;;;;26.90;15.40;;;;;;;3.31;100.00;99973.48;177694;1259;46073;-82
2023/12/31 05:32:56;;;;;;;19.10;12.00;;;;;;;3.27;100.00;99969.70;177379;1259;45884;-83
2023/12/31 05:37:01;;;;;;;18.10;15.00;;;;;;;3.26;100.00;99962.21;177556;1260;45995;-85
2023/12/31 05:41:06;;;;;;;21.80;12.70;;;;;;;3.22;100.00;99962.11;177767;1258;57993;-83
2023/12/31 05:45:10;;;;;;;21.80;15.30;;;;;;;3.24;100.00;99955.50;177592;1259;46098;-81
2023/12/31 05:49:13;;;;;;;16.80;12.50;;;;;;;3.29;100.00;99947.65;177778;1260;46012;-84
2023/12/31 05:53:16;;;;;;;22.00;13.10;;;;;;;3.37;100.00;99940.20;177392;1260;46098;-83
2023/12/31 05:57:20;;;;;;;19.40;12.30;;;;;;;3.47;100.00;99935.42;177671;1258;46054;-83
2023/12/31 06:01:23;;;;;;;17.80;10.00;;;;;;;3.53;100.00;99926.70;177560;1262;59415;-83
2023/12/31 06:05:26;;;;;;;16.10;12.00;;;;;;;3.57;100.00;99928.71;177317;1261;45420;-81
2023/12/31 06:09:29;;;;;;;16.30;10.60;;;;;;;3.58;100.00;99921.88;177536;1262;46028;-82
2023/12/31 06:13:32;;;;;;;13.60;9.10;;;;;;;3.57;100.00;99917.52;177546;1260;45893;-83
2023/12/31 06:17:36;;;;;;;15.40;10.10;;;;;;;3.56;100.00;99912.64;177363;1260;45958;-82
2023/12/31 06:21:39;;;;;;;13.70;9.00;;;;;;;3.54;100.00;99907.32;177228;1260;59071;-83
2023/12/31 06:25:42;;;;;;;16.90;11.70;;;;;;;3.57;100.00;99902.10;177639;1262;46204;-81
2023/12/31 06:29:45;;;;;;;9.60;7.60;;;;;;;3.54;100.00;99900.16;177598;1258;45988;-83
2023/12/31 06:33:49;;;;;;;15.10;7.90;;;;;;;3.59;100.00;99895.66;177692;1261;46098;-84
2023/12/31 06:37:52;;;;;;;12.50;8.50;;;;;;;3.62;100.00;99889.18;177262;1258;46093;-83
2023/12/31 06:41:55;;;;;;;12.30;8.10;;;;;;;3.74;100.00;99880.94;177597;1259;59242;-82
2023/12/31 06:45:58;;;;;;;13.20;8.90;;;;;;;3.89;100.00;99875.98;177475;1260;46178;-83
2023/12/31 06:50:02;;;;;;;11.50;7.60;;;;;;;3.94;100.00;99874.80;177984;1259;46112;-82
2023/12/31 06:54:06;;;;;;;11.90;7.60;;;;;;;3.95;100.00;99870.90;177571;1260;46083;-82
2023/12/31 06:58:11;;;;;;;18.30;6.80;;;;;;;3.96;100.00;99871.36;177523;1262;46211;-82
2023/12/31 07:02:14;;;;;;;8.60;5.50;;;;;;;4.08;100.00;99863.10;178239;1263;59573;-82
2023/12/31 07:06:18;;;;;;;9.50;6.80;;;;;;;4.32;100.00;99855.30;177461;1258;46204;-83
2023/12/31 07:10:22;;;;;;;12.60;7.20;;;;;;;4.55;100.00;99854.56;177901;1257;46105;-84
2023/12/31 07:14:26;;;;;;;13.40;6.80;;;;;;;4.85;100.00;99852.49;177720;1260;45969;-83
2023/12/31 07:18:29;;;;;;;7.90;6.00;;;;;;;5.16;100.00;99850.67;178166;1258;45986;-83
2023/12/31 07:22:33;;;;;;;11.50;6.00;;;;;;;5.36;100.00;99850.95;177541;1258;58772;-82
2023/12/31 07:26:36;;;;;;;8.40;5.50;;;;;;;5.49;100.00;99846.20;177462;1262;46083;-82
2023/12/31 07:30:43;;;;;;;8.60;5.90;;;;;;;5.62;100.00;99844.94;178001;1260;46027;-83
2023/12/31 07:34:46;;;;;;;9.90;6.60;;;;;;;5.73;100.00;99844.92;177738;1260;46324;-82
2023/12/31 07:38:50;;;;;;;8.50;5.50;;;;;;;5.87;100.00;99841.33;177410;1262;46034;-82
2023/12/31 07:42:53;;;;;;;9.10;5.30;;;;;;;5.98;100.00;99838.09;177621;1262;58317;-82
2023/12/31 07:46:56;;;;;;;13.00;5.10;;;;;;;6.06;100.00;99837.58;177161;1263;46126;-82
2023/12/31 07:51:03;;;;;;;11.50;8.00;;;;;;;6.19;100.00;99837.93;177613;1259;46082;-82
2023/12/31 07:55:08;;;;;;;;;;;;;;;6.24;100.00;99832.30;177694;1260;45871;-82
2023/12/31 07:59:12;;;;;;;15.60;9.20;;;;;;;6.18;100.00;99832.17;177563;1259;43882;-82
2023/12/31 08:03:15;;;;;;;14.20;7.90;;;;;;;6.06;100.00;99827.23;178203;1262;59905;-82
2023/12/31 08:07:18;;;;;;;18.50;9.90;;;;;;;5.96;100.00;99824.85;177422;1262;46180;-80
2023/12/31 08:11:21;;;;;;;13.30;9.50;;;;;;;5.95;100.00;99826.39;177964;1262;46032;-80
2023/12/31 08:15:25;;;;;;;18.50;9.30;;;;;;;5.87;100.00;99836.41;178093;1260;45883;-80
2023/12/31 08:19:28;;;;;;;10.70;7.80;;;;;;;5.82;100.00;99831.83;178641;1260;46016;-83
2023/12/31 08:23:32;;;;;;;11.60;8.50;;;;;;;5.75;100.00;99834.05;178610;1259;58151;-83
2023/12/31 08:27:36;;;;;;;14.00;9.30;;;;;;;5.69;100.00;99830.96;178100;1260;45987;-83
2023/12/31 08:31:39;;;;;;;11.30;8.70;;;;;;;5.71;100.00;99829.90;178537;1260;46162;-83
2023/12/31 08:35:43;;;;;;;13.90;11.30;;;;;;;5.78;100.00;99818.73;178049;1260;46106;-82
2023/12/31 08:39:49;;;;;;;13.50;10.30;;;;;;;5.89;100.00;99819.58;177837;1260;46413;-82
2023/12/31 08:43:52;;;;;;;15.40;10.60;;;;;;;5.95;100.00;99821.81;178184;1260;57597;-82
2023/12/31 08:47:55;;;;;;;14.80;10.00;;;;;;;6.02;100.00;99826.03;177350;1260;46002;-83
2023/12/31 08:51:59;;;;;;;15.00;8.60;;;;;;;6.12;100.00;99827.81;178226;1259;46015;-82
2023/12/31 08:56:02;;;;;;;12.70;8.60;;;;;;;6.24;100.00;99821.88;178604;1262;46591;-83
2023/12/31 09:00:07;;;;;;;17.70;10.20;;;;;;;6.33;100.00;99815.95;177878;1260;46087;-81
2023/12/31 09:04:10;;;;;;;14.40;10.90;;;;;;;6.39;100.00;99813.10;178921;1257;58289;-83
2023/12/31 09:08:14;;;;;;;16.40;10.40;;;;;;;6.45;100.00;99808.62;178398;1259;46064;-82
2023/12/31 09:12:26;;;;;;;21.40;15.10;;;;;;;6.47;100.00;99807.45;178218;1259;46181;31
2023/12/31 09:16:30;;;;;;;23.90;13.90;;;;;;;6.43;100.00;99802.24;180731;1258;90679;-66
2023/12/31 09:20:47;;;;;;;21.10;12.60;;;;;;;6.46;100.00;99800.98;180057;1260;46008;-63
2023/12/31 09:24:52;;;;;;;20.30;13.50;;;;;;;6.48;100.00;99792.92;180131;1260;58726;-64
2023/12/31 09:29:04;;;;;;;31.20;15.60;;;;;;;6.52;100.00;99789.81;179890;1260;43763;-65
2023/12/31 09:33:08;;;;;;;21.30;12.30;;;;;;;6.58;100.00;99784.94;179888;1260;46007;-63
2023/12/31 09:37:18;;;;;;;17.00;10.80;;;;;;;6.64;100.00;99785.40;179955;1263;45914;-64
2023/12/31 09:41:24;;;;;;;20.50;12.00;;;;;;;6.74;100.00;99777.95;180061;1263;46081;-64
2023/12/31 09:45:33;;;;;;;20.20;11.90;;;;;;;6.88;100.00;99762.11;180012;1260;58711;-64
2023/12/31 09:49:39;;;;;;;37.40;24.10;;;;;;;7.04;100.00;99754.42;179935;1260;44855;-64
2023/12/31 09:53:55;;;;;;;65.70;42.70;;;;;;;7.17;100.00;99748.56;179857;1260;44731;-63
2023/12/31 09:57:59;;;;;;;32.70;29.10;;;;;;;7.28;100.00;99738.89;179815;1260;46293;-64
2023/12/31 10:02:07;;;;;;;18.10;13.50;;;;;;;7.41;100.00;99734.18;179847;1260;43582;-63
2023/12/31 10:06:11;;;;;;;40.50;35.70;;;;;;;7.51;100.00;99723.90;179721;1260;58986;-63
2023/12/31 10:10:18;;;;;;;25.10;20.50;;;;;;;7.60;100.00;99716.31;179811;1260;89303;-88
2023/12/31 10:14:23;;;;;;;21.90;19.20;;;;;;;7.70;100.00;99712.21;178327;1260;46482;-88
2023/12/31 10:18:29;;;;;;;17.80;14.20;;;;;;;7.78;100.00;99705.39;179716;1260;45945;-91
2023/12/31 10:22:43;;;;;;;13.90;12.20;;;;;;;7.84;100.00;99697.82;179551;1263;46072;-86
2023/12/31 10:31:04;;;;;;;38.80;15.50;;;;;;;8.06;100.00;99678.75;177555;1264;46033;-83
2023/12/31 10:35:08;;;;;;;28.90;16.50;;;;;;;8.17;100.00;99664.64;176821;1266;46094;-82
2023/12/31 10:39:41;;;;;;;21.90;16.80;;;;;;;8.25;100.00;99656.98;178104;1264;46206;-83
2023/12/31 10:43:48;;;;;;;21.20;13.50;;;;;;;8.30;100.00;99644.91;177111;1263;46021;-83
2023/12/31 10:47:53;;;;;;;20.30;13.30;;;;;;;8.40;100.00;99642.98;177034;1265;58229;-83
2023/12/31 10:52:01;;;;;;;28.80;12.60;;;;;;;8.50;100.00;99638.08;176947;1262;46058;-82
2023/12/31 10:56:05;;;;;;;17.60;11.50;;;;;;;8.61;100.00;99634.10;177151;1266;46061;-82
2023/12/31 11:00:15;;;;;;;18.40;12.00;;;;;;;8.70;100.00;99625.54;177193;1263;46019;-83
2023/12/31 11:04:21;;;;;;;15.30;10.40;;;;;;;8.78;100.00;99615.52;177367;1263;45981;-83
2023/12/31 11:08:25;;;;;;;18.70;7.90;;;;;;;8.87;99.78;99616.00;177439;1265;57910;-83
2023/12/31 11:12:29;;;;;;;13.40;7.00;;;;;;;8.88;98.52;99606.68;176939;1266;46037;-83
2023/12/31 11:16:50;;;;;;;12.50;8.30;;;;;;;8.82;98.26;99592.85;177683;1263;46049;-83
2023/12/31 11:21:32;;;;;;;16.80;9.40;;;;;;;8.83;99.34;99578.31;177709;1264;45958;-82
2023/12/31 11:25:37;;;;;;;22.60;14.50;;;;;;;8.87;99.76;99568.06;177180;1265;45989;-82
2023/12/31 11:29:41;;;;;;;23.80;10.30;;;;;;;8.91;99.82;99559.95;177331;1263;59427;-82
2023/12/31 11:33:45;;;;;;;15.10;10.20;;;;;;;8.92;100.00;99550.85;177221;1262;46206;-82
2023/12/31 11:37:49;;;;;;;22.30;13.30;;;;;;;8.94;100.00;99538.09;177436;1266;46040;-82
2023/12/31 11:41:59;;;;;;;25.20;14.70;;;;;;;8.95;100.00;99525.08;177475;1264;45996;-82
2023/12/31 11:46:02;;;;;;;22.30;12.30;;;;;;;8.96;100.00;99517.96;177231;1262;46009;-82
2023/12/31 11:50:05;;;;;;;26.20;17.30;;;;;;;9.00;100.00;99518.30;177570;1262;60945;-81
2023/12/31 11:54:11;;;;;;;19.80;10.30;;;;;;;9.03;100.00;99512.02;177228;1263;46110;-82
2023/12/31 11:58:14;;;;;;;18.50;11.00;;;;;;;9.01;100.00;99505.10;177231;1262;46022;-82
2023/12/31 12:02:17;;;;;;;69.90;31.90;;;;;;;9.03;100.00;99495.38;177395;1263;46177;-81
2023/12/31 12:06:21;;;;;;;32.70;21.70;;;;;;;9.17;100.00;99486.89;177522;1262;46114;-84
2023/12/31 12:10:24;;;;;;;42.50;18.20;;;;;;;9.26;100.00;99473.56;176912;1263;57660;-85
2023/12/31 12:14:28;;;;;;;23.00;12.50;;;;;;;9.28;100.00;99466.63;177207;1265;45994;-84
2023/12/31 12:18:32;;;;;;;16.00;9.10;;;;;;;9.29;100.00;99460.39;177200;1264;46104;-85
2023/12/31 12:22:35;;;;;;;16.10;9.70;;;;;;;9.20;100.00;99454.79;177331;1263;46048;-85
2023/12/31 12:26:39;;;;;;;13.70;9.10;;;;;;;9.08;100.00;99452.17;177287;1265;46107;-85
2023/12/31 12:30:43;;;;;;;14.30;8.60;;;;;;;9.08;100.00;99453.54;177119;1267;59744;-85
2023/12/31 12:34:49;;;;;;;15.60;9.40;;;;;;;9.18;100.00;99445.12;176904;1267;46570;-85
2023/12/31 12:38:53;;;;;;;14.10;9.50;;;;;;;9.33;100.00;99446.45;177119;1265;45988;-86
2023/12/31 12:42:56;;;;;;;18.30;10.10;;;;;;;9.36;100.00;99440.52;177181;1263;46191;-84
2023/12/31 12:47:02;;;;;;;37.60;20.90;;;;;;;9.32;100.00;99439.63;177470;1264;45940;-87
2023/12/31 12:51:05;;;;;;;28.00;20.30;;;;;;;9.29;100.00;99443.17;177390;1264;58259;-84
2023/12/31 12:55:08;;;;;;;21.20;14.20;;;;;;;9.23;99.98;99437.20;177096;1265;46112;-83
2023/12/31 12:59:11;;;;;;;29.60;18.80;;;;;;;9.17;99.91;99435.23;177505;1264;46216;-83
2023/12/31 13:03:14;;;;;;;26.30;16.80;;;;;;;9.12;99.35;99424.77;177220;1263;46087;-84
2023/12/31 13:07:18;;;;;;;20.30;14.20;;;;;;;8.88;100.00;99418.37;177198;1264;46088;-85
2023/12/31 13:11:21;;;;;;;17.20;12.50;;;;;;;8.79;100.00;99410.32;176884;1266;58056;-84
2023/12/31 13:15:24;;;;;;;18.70;12.00;;;;;;;8.68;100.00;99409.65;177152;1264;46109;-84
2023/12/31 13:19:28;;;;;;;33.70;25.90;;;;;;;8.63;100.00;99412.91;176886;1265;46118;-84
2023/12/31 13:23:32;;;;;;;46.00;29.50;;;;;;;8.65;100.00;99406.59;177255;1263;46020;-82
2023/12/31 13:27:35;;;;;;;39.30;25.20;;;;;;;8.61;100.00;99401.98;177078;1266;45933;-84
2023/12/31 13:31:38;;;;;;;25.90;15.10;;;;;;;8.50;100.00;99400.09;177198;1267;58253;-82
2023/12/31 13:35:41;;;;;;;18.50;13.00;;;;;;;8.29;100.00;99390.95;177243;1264;46128;-82
2023/12/31 13:39:44;;;;;;;21.50;13.80;;;;;;;8.18;100.00;99388.73;177338;1264;46106;-82
2023/12/31 13:43:48;;;;;;;17.80;12.60;;;;;;;7.97;100.00;99375.32;178329;1266;46198;-81
2023/12/31 13:47:51;;;;;;;26.40;14.00;;;;;;;7.87;100.00;99373.32;177842;1262;44342;-84
2023/12/31 13:51:54;;;;;;;34.40;21.10;;;;;;;7.62;100.00;99369.19;177437;1264;58249;-84
2023/12/31 13:55:57;;;;;;;35.10;21.70;;;;;;;7.45;100.00;99359.85;177256;1264;45988;-84
2023/12/31 14:00:01;;;;;;;40.20;25.60;;;;;;;7.35;100.00;99345.52;176856;1266;46101;-85
2023/12/31 14:04:10;;;;;;;35.60;21.80;;;;;;;7.28;100.00;99337.09;177545;1263;46093;-82
2023/12/31 14:08:14;;;;;;;28.20;18.60;;;;;;;7.24;100.00;99338.09;178353;1262;45992;-84
2023/12/31 14:12:22;;;;;;;31.10;20.50;;;;;;;7.20;100.00;99344.83;177405;1266;57705;-84
2023/12/31 14:16:25;;;;;;;23.40;17.80;;;;;;;7.19;100.00;99348.82;177588;1263;46764;-83
2023/12/31 14:20:28;;;;;;;57.90;38.10;;;;;;;7.05;100.00;99348.18;177315;1263;46143;-84
2023/12/31 14:24:32;;;;;;;53.90;35.00;;;;;;;6.88;100.00;99338.42;177571;1264;46567;-83
2023/12/31 14:28:35;;;;;;;35.40;24.50;;;;;;;6.79;100.00;99331.41;177772;1264;45895;-84
2023/12/31 14:32:38;;;;;;;29.70;23.70;;;;;;;6.73;100.00;99326.08;176914;1264;58279;-84
2023/12/31 14:36:43;;;;;;;86.30;51.20;;;;;;;6.68;100.00;99327.30;176837;1266;44397;-83
2023/12/31 14:40:46;;;;;;;127.60;76.90;;;;;;;6.66;100.00;99326.83;177074;1264;46100;-83
2023/12/31 14:44:50;;;;;;;64.90;39.70;;;;;;;6.59;100.00;99322.23;177880;1263;46084;-81
2023/12/31 14:48:53;;;;;;;30.70;21.60;;;;;;;6.32;100.00;99313.46;177284;1266;45985;-84
2023/12/31 14:52:56;;;;;;;37.70;24.00;;;;;;;6.10;100.00;99309.94;178346;1267;59279;-83
2023/12/31 14:56:59;;;;;;;39.40;23.80;;;;;;;5.96;100.00;99309.35;177279;1266;45951;-84
2023/12/31 15:01:03;;;;;;;39.60;23.90;;;;;;;5.87;100.00;99316.74;177419;1266;46098;-83
2023/12/31 15:05:07;;;;;;;40.60;30.40;;;;;;;5.73;100.00;99321.51;177298;1263;46018;-83
2023/12/31 15:09:21;;;;;;;42.80;27.50;;;;;;;5.66;100.00;99312.35;176881;1264;46033;-83
2023/12/31 15:13:25;;;;;;;50.60;29.90;;;;;;;5.54;100.00;99301.45;177166;1264;59424;-83
2023/12/31 15:17:28;;;;;;;45.00;32.30;;;;;;;5.42;100.00;99306.79;176858;1265;46208;-85
2023/12/31 15:21:31;;;;;;;61.80;36.80;;;;;;;5.40;100.00;99302.89;177184;1267;46127;-85
2023/12/31 15:25:34;;;;;;;49.80;31.90;;;;;;;5.47;100.00;99292.04;177276;1263;159310;-83
2023/12/31 15:29:38;;;;;;;48.60;29.80;;;;;;;5.52;100.00;99282.48;177538;1266;45887;-84
2023/12/31 15:33:41;;;;;;;38.20;25.60;;;;;;;5.50;100.00;99274.70;177407;1263;59070;-83
2023/12/31 15:37:44;;;;;;;38.40;23.00;;;;;;;5.50;100.00;99272.61;177665;1264;46237;-83
2023/12/31 15:42:00;;;;;;;42.40;24.80;;;;;;;5.46;100.00;99263.09;177423;1264;46403;-84
2023/12/31 15:46:04;;;;;;;34.30;23.70;;;;;;;5.45;100.00;99263.16;177688;1265;46232;-84
2023/12/31 15:50:08;;;;;;;34.10;22.90;;;;;;;5.37;100.00;99266.38;177198;1266;46088;-83
2023/12/31 15:54:11;;;;;;;35.80;22.20;;;;;;;5.33;100.00;99267.79;178198;1263;59546;-84
2023/12/31 15:58:16;;;;;;;34.40;24.50;;;;;;;5.24;100.00;99269.67;177029;1264;47230;-84
2023/12/31 16:02:19;;;;;;;41.90;28.60;;;;;;;5.16;100.00;99277.95;177036;1267;46067;-83
2023/12/31 16:06:22;;;;;;;35.50;22.20;;;;;;;5.18;100.00;99272.23;176946;1264;46052;-83
2023/12/31 16:10:27;;;;;;;31.00;25.00;;;;;;;5.25;100.00;99265.36;177226;1264;46121;-84
2023/12/31 16:14:30;;;;;;;43.40;27.70;;;;;;;5.24;100.00;99267.16;177150;1264;58284;-83
2023/12/31 16:18:33;;;;;;;40.20;25.30;;;;;;;5.25;100.00;99252.35;177712;1264;46157;-84
2023/12/31 16:22:37;;;;;;;46.20;30.90;;;;;;;5.27;100.00;99255.33;177759;1264;46203;-83
2023/12/31 16:26:40;;;;;;;48.70;29.50;;;;;;;5.36;100.00;99253.48;178504;1264;46138;-84
2023/12/31 16:30:43;;;;;;;46.00;30.30;;;;;;;5.44;100.00;99250.61;177509;1264;46234;-84
2023/12/31 16:34:46;;;;;;;50.80;30.10;;;;;;;5.50;100.00;99244.85;176996;1264;59562;-83
2023/12/31 16:38:50;;;;;;;42.10;30.90;;;;;;;5.53;100.00;99234.94;177295;1264;45994;-83
2023/12/31 16:42:53;;;;;;;50.90;32.40;;;;;;;5.53;100.00;99227.16;177051;1262;46108;-83
2023/12/31 16:46:57;;;;;;;46.90;28.50;;;;;;;5.44;100.00;99219.77;176812;1263;46164;-83
2023/12/31 16:51:01;;;;;;;45.30;25.00;;;;;;;5.40;100.00;99219.94;177580;1263;46103;-82
2023/12/31 16:55:09;;;;;;;47.70;27.20;;;;;;;5.36;100.00;99217.10;176987;1264;58160;-83
2023/12/31 16:59:15;;;;;;;47.00;28.60;;;;;;;5.38;100.00;99218.66;177068;1264;46037;-84
2023/12/31 17:03:18;;;;;;;47.60;31.90;;;;;;;5.38;100.00;99215.13;177199;1263;46139;-84
2023/12/31 17:07:22;;;;;;;40.10;25.10;;;;;;;5.43;100.00;99211.60;177301;1263;46040;-83
2023/12/31 17:11:25;;;;;;;48.60;30.20;;;;;;;5.54;100.00;99216.34;177405;1263;44039;-82
2023/12/31 17:15:28;;;;;;;47.40;32.00;;;;;;;5.59;100.00;99211.58;177272;1264;59370;-84
2023/12/31 17:19:31;;;;;;;42.50;28.90;;;;;;;5.64;100.00;99213.50;177313;1264;46021;-82
2023/12/31 17:23:35;;;;;;;58.30;36.30;;;;;;;5.72;100.00;99210.79;177805;1263;45995;-86
2023/12/31 17:27:39;;;;;;;38.00;26.00;;;;;;;5.76;100.00;99212.42;177526;1263;46196;-87
2023/12/31 17:31:43;;;;;;;37.70;24.60;;;;;;;5.72;100.00;99215.51;177817;1264;44442;-88
2023/12/31 17:35:46;;;;;;;90.70;50.70;;;;;;;5.76;100.00;99215.95;177425;1264;59285;-88
2023/12/31 17:39:50;;;;;;;46.40;30.10;;;;;;;5.81;100.00;99211.29;177464;1263;45859;-82
2023/12/31 17:43:53;;;;;;;57.60;40.90;;;;;;;5.88;100.00;99212.70;177305;1266;45911;-83
2023/12/31 17:47:56;;;;;;;64.60;41.30;;;;;;;5.91;100.00;99207.36;177774;1262;45995;-83
2023/12/31 17:52:00;;;;;;;45.20;30.10;;;;;;;5.93;100.00;99201.75;177416;1264;45989;-83
2023/12/31 17:56:03;;;;;;;42.60;28.50;;;;;;;5.88;100.00;99196.13;177672;1263;59597;-83
2023/12/31 18:00:07;;;;;;;64.90;38.50;;;;;;;5.74;100.00;99204.83;178028;1263;46263;-83
2023/12/31 18:04:10;;;;;;;50.90;38.20;;;;;;;5.76;100.00;99209.23;176849;1264;44396;-83
2023/12/31 18:08:14;;;;;;;32.30;22.10;;;;;;;5.81;100.00;99204.73;178179;1263;45908;-83
2023/12/31 18:12:17;;;;;;;37.80;22.20;;;;;;;5.86;100.00;99207.39;177957;1263;45943;-83
2023/12/31 18:16:20;;;;;;;39.10;25.50;;;;;;;5.92;100.00;99213.08;178135;1264;60518;-83
2023/12/31 18:20:23;;;;;;;31.40;22.00;;;;;;;5.97;100.00;99211.94;177994;1263;46005;-83
2023/12/31 18:24:27;;;;;;;38.00;23.30;;;;;;;6.01;100.00;99201.80;177824;1263;46075;-83
2023/12/31 18:28:30;;;;;;;27.40;20.50;;;;;;;5.95;100.00;99193.34;179790;1264;45995;-82
2023/12/31 18:32:36;;;;;;;32.70;21.90;;;;;;;5.87;100.00;99191.64;178443;1266;45980;-83
2023/12/31 18:36:41;;;;;;;;;;;;;;;5.94;100.00;99185.80;177961;1262;59974;-83
2023/12/31 18:40:44;;;;;;;34.30;20.60;;;;;;;6.02;100.00;99186.59;178040;1263;45848;-83